createdAt,value
2016-12-03T00:00:21.237Z,1025.17
2016-12-03T00:00:46.808Z,1025.19
2016-12-03T00:01:12.360Z,1025.17
2016-12-03T00:01:37.892Z,1025.18
2016-12-03T07:28:48.749Z,1026.77
2016-12-03T07:29:14.291Z,1026.74
2016-12-03T07:29:39.849Z,1026.79
2016-12-03T07:30:05.406Z,1026.77
2016-12-03T07:30:31.088Z,1026.78
2016-12-03T07:30:56.673Z,1026.75
2016-12-03T07:31:22.213Z,1026.81
2016-12-03T07:31:47.768Z,1026.81
2016-12-03T07:32:13.342Z,1026.81
2016-12-03T07:32:38.919Z,1026.82
2016-12-03T07:33:04.463Z,1026.84
2016-12-03T07:33:30.022Z,1026.83
2016-12-03T07:33:55.592Z,1026.82
2016-12-03T07:34:21.151Z,1026.85
2016-12-03T07:34:46.714Z,1026.85
2016-12-03T07:35:12.263Z,1026.86
2016-12-03T07:35:37.891Z,1026.85
2016-12-03T07:36:03.439Z,1026.87
2016-12-03T07:36:29.000Z,1026.8
2016-12-03T07:36:54.735Z,1026.78
2016-12-03T07:37:20.282Z,1026.85
2016-12-03T07:37:45.831Z,1026.85
2016-12-03T07:38:11.396Z,1026.91
2016-12-03T07:38:36.961Z,1026.94
2016-12-03T07:39:02.516Z,1026.94
2016-12-03T07:39:28.076Z,1026.91
2016-12-03T07:39:53.642Z,1026.93
2016-12-03T07:40:19.209Z,1026.92
2016-12-03T07:40:44.874Z,1026.94
2016-12-03T07:41:10.412Z,1026.92
2016-12-03T07:41:35.982Z,1026.9
2016-12-03T07:42:01.526Z,1026.9
2016-12-03T07:42:27.092Z,1026.92
2016-12-03T07:43:45.713Z,1026.94
2016-12-03T07:44:11.364Z,1026.88
2016-12-03T07:44:36.924Z,1026.87
2016-12-03T07:45:02.476Z,1026.91
2016-12-03T07:45:28.054Z,1026.86
2016-12-03T07:45:53.593Z,1026.89
2016-12-03T07:46:19.169Z,1026.81
2016-12-03T07:46:44.838Z,1026.8
2016-12-03T07:47:10.386Z,1026.86
2016-12-03T07:47:35.933Z,1026.83
2016-12-03T07:48:01.625Z,1026.79
2016-12-03T07:48:27.197Z,1026.79
2016-12-03T07:48:52.771Z,1026.8
2016-12-03T07:49:18.372Z,1026.83
2016-12-03T07:49:43.966Z,1026.83
2016-12-03T07:50:09.512Z,1026.81
2016-12-03T07:50:35.061Z,1026.84
2016-12-03T07:51:00.654Z,1026.81
2016-12-03T07:51:26.229Z,1026.85
2016-12-03T07:51:51.821Z,1026.85
2016-12-03T07:52:17.371Z,1026.85
2016-12-03T07:52:42.962Z,1026.88
2016-12-03T07:53:08.586Z,1026.87
2016-12-03T07:53:34.171Z,1026.87
2016-12-03T07:53:59.722Z,1026.91
2016-12-03T07:54:25.270Z,1026.9
2016-12-03T07:54:51.052Z,1026.91
2016-12-03T07:55:16.656Z,1026.98
2016-12-03T07:55:42.242Z,1026.94
2016-12-03T07:56:07.807Z,1027
2016-12-03T07:56:33.369Z,1026.97
2016-12-03T07:56:58.924Z,1026.97
2016-12-03T07:57:24.485Z,1027.02
2016-12-03T07:57:50.044Z,1026.97
2016-12-03T07:58:15.623Z,1026.99
2016-12-03T07:58:41.168Z,1027.01
2016-12-03T07:59:06.745Z,1027.01
2016-12-03T07:59:32.311Z,1026.99
2016-12-03T07:59:58.027Z,1026.99
2016-12-03T08:00:23.818Z,1026.99
2016-12-03T08:00:49.428Z,1027.04
2016-12-03T08:01:14.993Z,1027.03
2016-12-03T08:01:40.577Z,1027.04
2016-12-03T08:02:06.164Z,1027.08
2016-12-03T08:02:31.719Z,1027.07
2016-12-03T08:02:57.387Z,1027.11
2016-12-03T08:03:22.956Z,1027.15
2016-12-03T08:03:48.527Z,1027.13
2016-12-03T08:04:14.095Z,1027.15
2016-12-03T08:04:39.654Z,1027.1
2016-12-03T08:05:05.214Z,1027.12
2016-12-03T08:05:30.793Z,1027.15
2016-12-03T08:05:56.364Z,1027.15
2016-12-03T08:06:21.926Z,1027.17
2016-12-03T08:06:47.577Z,1027.16
2016-12-03T08:07:13.151Z,1027.12
2016-12-03T08:07:38.716Z,1027.16
2016-12-03T08:08:04.310Z,1027.11
2016-12-03T08:08:29.983Z,1027.14
2016-12-03T08:08:55.563Z,1027.1
2016-12-03T08:09:21.117Z,1027.07
2016-12-03T08:09:46.732Z,1027.1
2016-12-03T08:10:12.305Z,1027.09
2016-12-03T08:10:37.880Z,1027.06
2016-12-03T08:11:03.452Z,1027.11
2016-12-03T08:11:29.028Z,1027.1
2016-12-03T08:11:54.605Z,1027.12
2016-12-03T08:12:20.161Z,1027.11
2016-12-03T08:12:45.741Z,1027.12
2016-12-03T08:13:11.287Z,1027.15
2016-12-03T08:13:36.834Z,1027.12
2016-12-03T08:14:02.448Z,1027.11
2016-12-03T08:14:28.022Z,1027.13
2016-12-03T08:14:53.571Z,1027.14
2016-12-03T08:15:19.139Z,1027.11
2016-12-03T08:15:44.752Z,1027.12
2016-12-03T08:16:10.302Z,1027.12
2016-12-03T08:16:35.971Z,1027.11
2016-12-03T08:17:01.551Z,1027.16
2016-12-03T08:17:27.095Z,1027.14
2016-12-03T08:17:52.674Z,1027.15
2016-12-03T08:18:18.260Z,1027.16
2016-12-03T08:18:43.810Z,1027.11
2016-12-03T08:19:09.367Z,1027.14
2016-12-03T08:19:34.955Z,1027.18
2016-12-03T08:20:00.539Z,1027.2
2016-12-03T08:20:26.114Z,1027.18
2016-12-03T08:20:51.672Z,1027.16
2016-12-03T08:21:17.222Z,1027.2
2016-12-03T08:21:42.778Z,1027.19
2016-12-03T08:22:08.360Z,1027.2
2016-12-03T08:22:33.952Z,1027.16
2016-12-03T08:22:59.525Z,1027.19
2016-12-03T08:23:25.079Z,1027.18
2016-12-03T08:23:50.632Z,1027.19
2016-12-03T08:24:16.255Z,1027.21
2016-12-03T08:24:41.842Z,1027.18
2016-12-03T08:25:07.413Z,1027.23
2016-12-03T08:25:32.970Z,1027.18
2016-12-03T08:25:58.538Z,1027.21
2016-12-03T08:26:24.087Z,1027.19
2016-12-03T08:26:49.644Z,1027.17
2016-12-03T08:27:15.214Z,1027.22
2016-12-03T08:27:40.756Z,1027.25
2016-12-03T08:28:06.314Z,1027.23
2016-12-03T08:28:31.882Z,1027.22
2016-12-03T08:28:57.493Z,1027.21
2016-12-03T08:29:23.054Z,1027.15
2016-12-03T08:29:48.634Z,1027.15
2016-12-03T08:30:14.197Z,1027.14
2016-12-03T08:30:39.763Z,1027.19
2016-12-03T08:31:05.381Z,1027.16
2016-12-03T08:31:30.983Z,1027.21
2016-12-03T08:31:56.551Z,1027.16
2016-12-03T08:32:22.140Z,1027.17
2016-12-03T08:32:47.683Z,1027.16
2016-12-03T08:33:13.248Z,1027.14
2016-12-03T08:33:38.771Z,1027.17
2016-12-03T08:34:04.359Z,1027.2
2016-12-03T08:34:29.890Z,1027.21
2016-12-03T08:34:55.452Z,1027.17
2016-12-03T08:35:21.015Z,1027.19
2016-12-03T08:35:46.559Z,1027.18
2016-12-03T08:36:12.121Z,1027.16
2016-12-03T08:36:37.736Z,1027.21
2016-12-03T08:37:03.307Z,1027.2
2016-12-03T08:37:28.874Z,1027.19
2016-12-03T08:37:54.482Z,1027.19
2016-12-03T08:38:20.055Z,1027.19
2016-12-03T08:38:45.642Z,1027.2
2016-12-03T08:39:11.193Z,1027.19
2016-12-03T08:39:36.752Z,1027.18
2016-12-03T08:40:02.354Z,1027.2
2016-12-03T08:40:27.928Z,1027.24
2016-12-03T08:40:53.532Z,1027.25
2016-12-03T08:41:19.114Z,1027.28
2016-12-03T08:41:44.648Z,1027.26
2016-12-03T08:42:10.224Z,1027.28
2016-12-03T08:42:35.816Z,1027.27
2016-12-03T08:43:01.597Z,1027.31
2016-12-03T08:43:27.154Z,1027.31
2016-12-03T08:43:52.726Z,1027.29
2016-12-03T08:44:18.285Z,1027.28
2016-12-03T08:44:43.842Z,1027.28
2016-12-03T08:45:09.444Z,1027.28
2016-12-03T08:45:34.985Z,1027.3
2016-12-03T08:46:00.559Z,1027.27
2016-12-03T08:46:26.128Z,1027.33
2016-12-03T08:46:51.749Z,1027.28
2016-12-03T08:47:17.311Z,1027.3
2016-12-03T08:47:42.864Z,1027.3
2016-12-03T08:48:08.506Z,1027.31
2016-12-03T08:48:34.076Z,1027.3
2016-12-03T08:48:59.649Z,1027.29
2016-12-03T08:49:25.233Z,1027.3
2016-12-03T08:49:50.823Z,1027.3
2016-12-03T08:50:16.377Z,1027.31
2016-12-03T08:50:41.962Z,1027.3
2016-12-03T08:51:07.536Z,1027.34
2016-12-03T08:51:33.125Z,1027.35
2016-12-03T08:51:58.666Z,1027.38
2016-12-03T08:52:24.225Z,1027.38
2016-12-03T08:52:49.796Z,1027.36
2016-12-03T08:53:15.413Z,1027.38
2016-12-03T08:53:40.969Z,1027.42
2016-12-03T08:54:06.541Z,1027.39
2016-12-03T08:54:32.592Z,1027.47
2016-12-03T08:54:58.169Z,1027.46
2016-12-03T08:55:23.727Z,1027.44
2016-12-03T08:55:49.271Z,1027.47
2016-12-03T08:56:15.692Z,1027.48
2016-12-03T08:56:40.438Z,1027.5
2016-12-03T08:57:05.990Z,1027.55
2016-12-03T08:57:31.766Z,1027.54
2016-12-03T08:57:57.319Z,1027.57
2016-12-03T08:58:22.887Z,1027.6
2016-12-03T08:58:48.449Z,1027.57
2016-12-03T08:59:14.002Z,1027.62
2016-12-03T08:59:39.575Z,1027.66
2016-12-03T09:00:05.233Z,1027.62
2016-12-03T09:00:30.801Z,1027.68
2016-12-03T09:00:56.540Z,1027.67
2016-12-03T09:01:22.103Z,1027.72
2016-12-03T09:01:47.681Z,1027.67
2016-12-03T09:02:13.229Z,1027.73
2016-12-03T09:02:38.839Z,1027.7
2016-12-03T09:03:04.405Z,1027.7
2016-12-03T09:03:29.964Z,1027.73
2016-12-03T09:03:55.529Z,1027.74
2016-12-03T09:04:21.110Z,1027.72
2016-12-03T09:04:46.678Z,1027.73
2016-12-03T09:05:12.311Z,1027.75
2016-12-03T09:05:37.857Z,1027.75
2016-12-03T09:06:03.481Z,1027.72
2016-12-03T09:06:29.088Z,1027.74
2016-12-03T09:06:54.663Z,1027.74
2016-12-03T09:07:20.222Z,1027.69
2016-12-03T09:07:45.927Z,1027.7
2016-12-03T09:08:11.495Z,1027.69
2016-12-03T09:08:37.064Z,1027.71
2016-12-03T09:09:02.622Z,1027.69
2016-12-03T09:09:28.189Z,1027.64
2016-12-03T09:09:53.760Z,1027.64
2016-12-03T09:10:19.318Z,1027.67
2016-12-03T09:10:44.869Z,1027.67
2016-12-03T09:11:10.548Z,1027.66
2016-12-03T09:11:36.107Z,1027.69
2016-12-03T09:12:01.670Z,1027.66
2016-12-03T09:12:27.286Z,1027.69
2016-12-03T09:12:52.974Z,1027.69
2016-12-03T09:13:18.510Z,1027.72
2016-12-03T09:13:44.034Z,1027.74
2016-12-03T09:14:09.675Z,1027.72
2016-12-03T09:14:35.219Z,1027.7
2016-12-03T09:15:01.666Z,1027.74
2016-12-03T09:15:27.205Z,1027.77
2016-12-03T09:15:52.771Z,1027.8
2016-12-03T09:17:01.097Z,1027.8
2016-12-03T09:17:26.664Z,1027.83
2016-12-03T09:17:52.220Z,1027.8
2016-12-03T09:18:17.873Z,1027.83
2016-12-03T09:18:43.459Z,1027.8
2016-12-03T09:19:09.006Z,1027.81
2016-12-03T09:19:34.577Z,1027.87
2016-12-03T09:20:00.213Z,1027.85
2016-12-03T09:20:26.038Z,1027.86
2016-12-03T09:20:51.413Z,1027.89
2016-12-03T09:21:16.955Z,1027.85
2016-12-03T09:21:42.521Z,1027.86
2016-12-03T09:22:08.107Z,1027.9
2016-12-03T09:22:33.676Z,1027.88
2016-12-03T09:22:59.280Z,1027.88
2016-12-03T09:23:24.873Z,1027.86
2016-12-03T09:23:50.433Z,1027.88
2016-12-03T09:24:16.001Z,1027.89
2016-12-03T09:24:41.578Z,1027.87
2016-12-03T09:25:07.135Z,1027.89
2016-12-03T09:25:32.743Z,1027.89
2016-12-03T09:25:58.334Z,1027.9
2016-12-03T09:26:23.892Z,1027.9
2016-12-03T09:26:49.469Z,1027.86
2016-12-03T09:27:15.015Z,1027.88
2016-12-03T09:27:40.593Z,1027.91
2016-12-03T09:28:06.160Z,1027.9
2016-12-03T09:28:31.854Z,1027.93
2016-12-03T09:28:57.407Z,1027.89
2016-12-03T09:29:22.966Z,1027.91
2016-12-03T09:29:48.520Z,1027.93
2016-12-03T09:30:14.096Z,1027.93
2016-12-03T09:30:39.676Z,1027.93
2016-12-03T09:31:05.243Z,1027.95
2016-12-03T09:31:30.881Z,1027.91
2016-12-03T09:31:56.417Z,1027.95
2016-12-03T09:33:15.066Z,1027.94
2016-12-03T09:33:40.643Z,1027.96
2016-12-03T09:34:06.243Z,1027.94
2016-12-03T09:34:32.000Z,1027.95
2016-12-03T09:34:57.601Z,1027.94
2016-12-03T09:35:23.214Z,1027.98
2016-12-03T09:35:48.791Z,1027.95
2016-12-03T09:36:14.382Z,1027.97
2016-12-03T09:36:39.993Z,1027.95
2016-12-03T09:37:05.548Z,1027.94
2016-12-03T09:37:31.104Z,1027.96
2016-12-03T09:37:56.707Z,1027.97
2016-12-03T09:38:22.253Z,1027.95
2016-12-03T09:38:47.805Z,1027.95
2016-12-03T09:39:13.391Z,1027.95
2016-12-03T09:39:38.956Z,1027.94
2016-12-03T09:40:04.598Z,1028.02
2016-12-03T09:40:30.147Z,1027.97
2016-12-03T09:40:55.718Z,1027.97
2016-12-03T09:41:21.269Z,1027.99
2016-12-03T09:41:46.865Z,1027.94
2016-12-03T09:42:12.541Z,1027.98
2016-12-03T09:42:38.107Z,1028.01
2016-12-03T09:43:03.772Z,1027.98
2016-12-03T09:43:29.347Z,1027.99
2016-12-03T09:43:54.907Z,1028
2016-12-03T09:44:20.510Z,1027.97
2016-12-03T09:44:46.233Z,1027.96
2016-12-03T09:45:11.809Z,1027.98
2016-12-03T09:45:37.462Z,1028
2016-12-03T09:46:03.038Z,1027.99
2016-12-03T09:46:28.606Z,1027.99
2016-12-03T09:46:54.159Z,1028
2016-12-03T09:47:19.820Z,1028.02
2016-12-03T09:47:45.380Z,1028.02
2016-12-03T09:48:10.945Z,1028.01
2016-12-03T09:48:36.502Z,1028.04
2016-12-03T09:49:02.044Z,1028.06
2016-12-03T09:49:27.628Z,1028.07
2016-12-03T09:49:53.197Z,1028.05
2016-12-03T09:50:18.762Z,1028.03
2016-12-03T09:50:44.324Z,1027.99
2016-12-03T09:51:09.891Z,1028.04
2016-12-03T09:51:35.454Z,1028
2016-12-03T09:52:01.009Z,1028
2016-12-03T09:52:26.598Z,1027.95
2016-12-03T09:52:52.177Z,1028.01
2016-12-03T09:53:17.777Z,1027.99
2016-12-03T09:53:43.338Z,1027.95
2016-12-03T09:54:08.898Z,1027.98
2016-12-03T09:54:34.546Z,1027.94
2016-12-03T09:55:00.150Z,1027.96
2016-12-03T09:55:25.711Z,1027.96
2016-12-03T09:55:51.350Z,1027.9
2016-12-03T09:56:16.905Z,1027.97
2016-12-03T09:56:42.468Z,1027.96
2016-12-03T09:57:08.021Z,1027.93
2016-12-03T09:57:33.746Z,1027.95
2016-12-03T09:57:59.322Z,1027.93
2016-12-03T09:58:24.897Z,1028
2016-12-03T09:58:50.474Z,1027.97
2016-12-03T09:59:16.127Z,1027.97
2016-12-03T09:59:41.703Z,1027.98
2016-12-03T10:00:07.250Z,1027.99
2016-12-03T10:00:32.813Z,1027.96
2016-12-03T10:00:58.395Z,1027.95
2016-12-03T10:01:23.952Z,1027.97
2016-12-03T10:01:49.522Z,1027.95
2016-12-03T10:02:15.084Z,1027.96
2016-12-03T10:02:40.751Z,1027.96
2016-12-03T10:03:06.319Z,1027.96
2016-12-03T10:03:32.079Z,1027.92
2016-12-03T10:03:57.631Z,1027.96
2016-12-03T10:04:23.186Z,1027.93
2016-12-03T10:04:48.781Z,1027.93
2016-12-03T10:05:14.378Z,1027.94
2016-12-03T10:05:39.944Z,1027.92
2016-12-03T10:06:05.514Z,1027.95
2016-12-03T10:07:08.904Z,1027.88
2016-12-03T10:09:16.030Z,1027.9
2016-12-03T10:09:41.592Z,1027.9
2016-12-03T10:10:07.343Z,1027.91
2016-12-03T10:10:32.905Z,1027.91
2016-12-03T10:10:58.488Z,1027.86
2016-12-03T10:11:24.100Z,1027.86
2016-12-03T10:11:49.655Z,1027.9
2016-12-03T10:12:15.215Z,1027.92
2016-12-03T10:12:40.780Z,1027.88
2016-12-03T10:13:06.467Z,1027.9
2016-12-03T10:13:32.043Z,1027.86
2016-12-03T10:13:57.584Z,1027.83
2016-12-03T10:14:23.196Z,1027.86
2016-12-03T10:14:48.842Z,1027.87
2016-12-03T10:15:14.387Z,1027.85
2016-12-03T10:15:39.958Z,1027.86
2016-12-03T10:16:05.598Z,1027.93
2016-12-03T10:16:31.172Z,1027.89
2016-12-03T10:16:56.759Z,1027.9
2016-12-03T10:17:22.348Z,1027.9
2016-12-03T10:17:48.731Z,1027.88
2016-12-03T10:18:14.339Z,1027.86
2016-12-03T10:18:39.916Z,1027.86
2016-12-03T10:19:05.491Z,1027.88
2016-12-03T10:19:31.139Z,1027.84
2016-12-03T10:19:56.690Z,1027.87
2016-12-03T10:20:22.284Z,1027.85
2016-12-03T10:20:47.916Z,1027.87
2016-12-03T10:21:13.492Z,1027.86
2016-12-03T10:21:39.041Z,1027.84
2016-12-03T10:22:04.648Z,1027.8
2016-12-03T10:22:30.199Z,1027.81
2016-12-03T10:22:55.761Z,1027.77
2016-12-03T10:23:21.332Z,1027.79
2016-12-03T10:23:46.909Z,1027.81
2016-12-03T10:24:12.460Z,1027.85
2016-12-03T10:24:38.012Z,1027.83
2016-12-03T10:25:03.591Z,1027.78
2016-12-03T10:25:29.158Z,1027.81
2016-12-03T10:25:54.746Z,1027.79
2016-12-03T10:26:20.322Z,1027.85
2016-12-03T10:26:45.877Z,1027.81
2016-12-03T10:27:11.453Z,1027.81
2016-12-03T10:27:37.020Z,1027.79
2016-12-03T10:28:02.678Z,1027.78
2016-12-03T10:28:28.224Z,1027.75
2016-12-03T10:28:53.853Z,1027.8
2016-12-03T10:29:19.414Z,1027.79
2016-12-03T10:29:45.054Z,1027.81
2016-12-03T10:30:10.608Z,1027.75
2016-12-03T10:30:36.189Z,1027.8
2016-12-03T10:31:01.901Z,1027.81
2016-12-03T10:31:27.681Z,1027.82
2016-12-03T10:31:53.235Z,1027.76
2016-12-03T10:32:18.809Z,1027.75
2016-12-03T10:32:44.401Z,1027.71
2016-12-03T10:33:09.995Z,1027.79
2016-12-03T10:33:35.572Z,1027.79
2016-12-03T10:34:01.130Z,1027.75
2016-12-03T10:34:26.711Z,1027.76
2016-12-03T10:34:52.327Z,1027.8
2016-12-03T10:35:17.893Z,1027.81
2016-12-03T10:35:43.450Z,1027.78
2016-12-03T10:36:09.080Z,1027.84
2016-12-03T10:36:34.650Z,1027.85
2016-12-03T10:37:00.231Z,1027.8
2016-12-03T10:37:25.801Z,1027.81
2016-12-03T10:37:51.385Z,1027.78
2016-12-03T10:38:16.979Z,1027.8
2016-12-03T10:38:42.557Z,1027.75
2016-12-03T10:39:08.179Z,1027.76
2016-12-03T10:39:33.849Z,1027.74
2016-12-03T10:39:59.409Z,1027.72
2016-12-03T10:40:24.988Z,1027.71
2016-12-03T10:40:50.548Z,1027.72
2016-12-03T10:41:16.127Z,1027.72
2016-12-03T10:41:41.713Z,1027.75
2016-12-03T10:42:07.287Z,1027.73
2016-12-03T10:42:33.032Z,1027.69
2016-12-03T10:42:58.599Z,1027.72
2016-12-03T10:43:24.203Z,1027.71
2016-12-03T10:43:49.793Z,1027.7
2016-12-03T10:44:15.372Z,1027.66
2016-12-03T10:44:40.938Z,1027.72
2016-12-03T10:45:06.519Z,1027.68
2016-12-03T10:45:32.095Z,1027.67
2016-12-03T10:45:57.647Z,1027.65
2016-12-03T10:46:23.431Z,1027.7
2016-12-03T10:46:48.987Z,1027.68
2016-12-03T10:47:14.566Z,1027.67
2016-12-03T10:47:40.138Z,1027.66
2016-12-03T10:48:05.707Z,1027.67
2016-12-03T10:48:31.268Z,1027.69
2016-12-03T10:48:56.844Z,1027.66
2016-12-03T10:49:22.407Z,1027.67
2016-12-03T10:49:48.142Z,1027.68
2016-12-03T10:50:13.723Z,1027.66
2016-12-03T10:50:39.276Z,1027.66
2016-12-03T10:51:04.846Z,1027.66
2016-12-03T10:51:30.402Z,1027.65
2016-12-03T10:51:56.104Z,1027.64
2016-12-03T10:52:21.686Z,1027.65
2016-12-03T10:52:47.335Z,1027.63
2016-12-03T10:53:12.939Z,1027.61
2016-12-03T10:53:38.508Z,1027.62
2016-12-03T10:54:04.088Z,1027.64
2016-12-03T10:54:29.647Z,1027.62
2016-12-03T10:54:55.261Z,1027.62
2016-12-03T10:55:20.819Z,1027.62
2016-12-03T10:55:46.379Z,1027.6
2016-12-03T10:56:11.950Z,1027.62
2016-12-03T10:56:37.527Z,1027.62
2016-12-03T10:57:03.098Z,1027.62
2016-12-03T10:57:28.654Z,1027.62
2016-12-03T10:57:54.208Z,1027.57
2016-12-03T10:58:19.787Z,1027.57
2016-12-03T10:58:45.369Z,1027.58
2016-12-03T10:59:10.950Z,1027.57
2016-12-03T10:59:36.529Z,1027.58
2016-12-03T11:00:02.095Z,1027.56
2016-12-03T11:00:27.866Z,1027.55
2016-12-03T11:00:53.497Z,1027.54
2016-12-03T11:01:19.098Z,1027.55
2016-12-03T11:01:44.664Z,1027.53
2016-12-03T11:02:10.241Z,1027.47
2016-12-03T11:02:35.911Z,1027.52
2016-12-03T11:03:01.486Z,1027.52
2016-12-03T11:03:27.048Z,1027.51
2016-12-03T11:03:52.639Z,1027.53
2016-12-03T11:04:18.220Z,1027.54
2016-12-03T11:04:43.815Z,1027.53
2016-12-03T11:05:09.378Z,1027.51
2016-12-03T11:05:35.022Z,1027.56
2016-12-03T11:06:43.343Z,1027.56
2016-12-03T11:07:08.901Z,1027.51
2016-12-03T11:08:12.718Z,1027.53
2016-12-03T11:10:27.451Z,1027.54
2016-12-03T11:10:53.035Z,1027.53
2016-12-03T11:11:18.594Z,1027.52
2016-12-03T11:11:44.177Z,1027.53
2016-12-03T11:12:09.731Z,1027.56
2016-12-03T11:12:35.291Z,1027.52
2016-12-03T11:13:00.865Z,1027.54
2016-12-03T11:13:26.465Z,1027.5
2016-12-03T11:13:52.143Z,1027.52
2016-12-03T11:14:17.703Z,1027.51
2016-12-03T11:14:43.471Z,1027.52
2016-12-03T11:15:09.042Z,1027.5
2016-12-03T11:15:34.616Z,1027.54
2016-12-03T11:16:00.196Z,1027.52
2016-12-03T11:16:25.952Z,1027.51
2016-12-03T11:16:51.532Z,1027.5
2016-12-03T11:17:17.110Z,1027.52
2016-12-03T11:17:42.672Z,1027.51
2016-12-03T11:18:08.265Z,1027.54
2016-12-03T11:18:33.814Z,1027.55
2016-12-03T11:18:59.357Z,1027.51
2016-12-03T11:19:25.055Z,1027.55
2016-12-03T11:20:38.657Z,1027.55
2016-12-03T11:21:04.243Z,1027.53
2016-12-03T11:21:29.809Z,1027.52
2016-12-03T11:21:55.515Z,1027.51
2016-12-03T11:22:21.083Z,1027.53
2016-12-03T11:22:46.639Z,1027.54
2016-12-03T11:23:12.197Z,1027.51
2016-12-03T11:23:37.793Z,1027.5
2016-12-03T11:24:03.336Z,1027.49
2016-12-03T11:24:29.720Z,1027.51
2016-12-03T11:24:55.283Z,1027.52
2016-12-03T11:25:20.834Z,1027.5
2016-12-03T11:25:46.411Z,1027.52
2016-12-03T11:26:11.960Z,1027.54
2016-12-03T11:26:37.516Z,1027.49
2016-12-03T11:27:03.035Z,1027.55
2016-12-03T11:27:28.554Z,1027.52
2016-12-03T11:27:54.089Z,1027.53
2016-12-03T11:28:19.763Z,1027.52
2016-12-03T11:28:45.333Z,1027.56
2016-12-03T11:29:10.869Z,1027.52
2016-12-03T11:29:36.421Z,1027.5
2016-12-03T11:30:01.977Z,1027.51
2016-12-03T11:30:27.535Z,1027.55
2016-12-03T11:30:53.081Z,1027.57
2016-12-03T11:31:18.634Z,1027.56
2016-12-03T11:31:44.205Z,1027.57
2016-12-03T11:32:09.762Z,1027.57
2016-12-03T11:32:35.340Z,1027.62
2016-12-03T11:33:00.983Z,1027.59
2016-12-03T11:33:26.548Z,1027.61
2016-12-03T11:33:52.108Z,1027.56
2016-12-03T11:34:17.732Z,1027.6
2016-12-03T11:34:43.407Z,1027.59
2016-12-03T11:35:08.989Z,1027.6
2016-12-03T11:35:34.580Z,1027.66
2016-12-03T11:36:00.126Z,1027.61
2016-12-03T11:36:25.709Z,1027.66
2016-12-03T11:36:51.364Z,1027.64
2016-12-03T11:37:16.951Z,1027.65
2016-12-03T11:37:42.511Z,1027.65
2016-12-03T11:38:08.094Z,1027.69
2016-12-03T11:38:33.647Z,1027.69
2016-12-03T11:38:59.241Z,1027.67
2016-12-03T11:39:24.833Z,1027.67
2016-12-03T11:39:50.391Z,1027.68
2016-12-03T11:40:15.977Z,1027.69
2016-12-03T11:40:41.527Z,1027.67
2016-12-03T11:41:07.100Z,1027.7
2016-12-03T11:41:32.683Z,1027.68
2016-12-03T11:41:58.230Z,1027.69
2016-12-03T11:42:23.795Z,1027.7
2016-12-03T11:42:49.365Z,1027.67
2016-12-03T11:43:14.935Z,1027.64
2016-12-03T11:43:40.504Z,1027.7
2016-12-03T11:44:06.065Z,1027.67
2016-12-03T11:44:31.715Z,1027.64
2016-12-03T11:44:57.334Z,1027.65
2016-12-03T11:45:22.921Z,1027.63
2016-12-03T11:45:48.484Z,1027.64
2016-12-03T11:46:14.038Z,1027.65
2016-12-03T11:46:39.625Z,1027.66
2016-12-03T11:47:05.190Z,1027.64
2016-12-03T11:47:30.782Z,1027.59
2016-12-03T11:47:56.363Z,1027.61
2016-12-03T11:48:21.939Z,1027.62
2016-12-03T11:48:47.506Z,1027.6
2016-12-03T11:49:13.086Z,1027.64
2016-12-03T11:49:38.622Z,1027.62
2016-12-03T11:50:04.204Z,1027.66
2016-12-03T11:50:29.781Z,1027.63
2016-12-03T11:50:55.359Z,1027.61
2016-12-03T11:51:20.955Z,1027.66
2016-12-03T11:51:46.540Z,1027.67
2016-12-03T11:52:12.123Z,1027.66
2016-12-03T11:52:37.681Z,1027.63
2016-12-03T11:53:03.245Z,1027.67
2016-12-03T11:53:28.834Z,1027.63
2016-12-03T11:53:54.401Z,1027.65
2016-12-03T11:54:19.980Z,1027.64
2016-12-03T11:54:45.653Z,1027.64
2016-12-03T11:55:11.228Z,1027.69
2016-12-03T11:55:36.835Z,1027.64
2016-12-03T11:56:02.444Z,1027.65
2016-12-03T11:56:28.054Z,1027.68
2016-12-03T11:57:36.397Z,1027.66
2016-12-03T11:58:01.969Z,1027.69
2016-12-03T11:58:27.526Z,1027.66
2016-12-03T11:58:53.133Z,1027.69
2016-12-03T11:59:18.694Z,1027.71
2016-12-03T11:59:44.363Z,1027.7
2016-12-03T12:00:09.919Z,1027.7
2016-12-03T12:00:35.481Z,1027.73
2016-12-03T12:01:01.117Z,1027.67
2016-12-03T12:01:26.669Z,1027.67
2016-12-03T12:01:52.240Z,1027.68
2016-12-03T12:02:17.820Z,1027.67
2016-12-03T12:02:43.395Z,1027.71
2016-12-03T12:04:01.954Z,1027.67
2016-12-03T12:04:27.511Z,1027.69
2016-12-03T12:04:53.061Z,1027.64
2016-12-03T12:05:18.610Z,1027.7
2016-12-03T12:05:44.231Z,1027.66
2016-12-03T12:06:09.790Z,1027.63
2016-12-03T12:06:35.334Z,1027.67
2016-12-03T12:07:00.918Z,1027.62
2016-12-03T12:07:26.460Z,1027.63
2016-12-03T12:07:52.002Z,1027.68
2016-12-03T12:08:17.610Z,1027.64
2016-12-03T12:08:43.201Z,1027.65
2016-12-03T12:09:08.770Z,1027.6
2016-12-03T12:09:34.423Z,1027.6
2016-12-03T12:09:59.998Z,1027.57
2016-12-03T12:10:25.582Z,1027.62
2016-12-03T12:10:51.173Z,1027.67
2016-12-03T12:11:16.740Z,1027.6
2016-12-03T12:11:42.308Z,1027.67
2016-12-03T12:12:07.881Z,1027.6
2016-12-03T12:12:33.490Z,1027.65
2016-12-03T12:12:59.105Z,1027.58
2016-12-03T12:13:24.684Z,1027.59
2016-12-03T12:13:50.260Z,1027.59
2016-12-03T12:14:15.897Z,1027.58
2016-12-03T12:14:41.480Z,1027.63
2016-12-03T12:15:07.064Z,1027.57
2016-12-03T12:15:32.654Z,1027.6
2016-12-03T12:15:58.197Z,1027.61
2016-12-03T12:16:23.760Z,1027.61
2016-12-03T12:16:49.314Z,1027.58
2016-12-03T12:17:14.893Z,1027.61
2016-12-03T12:17:40.467Z,1027.61
2016-12-03T12:18:06.134Z,1027.61
2016-12-03T12:18:31.709Z,1027.61
2016-12-03T12:18:57.440Z,1027.63
2016-12-03T12:19:22.992Z,1027.58
2016-12-03T12:19:48.538Z,1027.58
2016-12-03T12:20:14.211Z,1027.56
2016-12-03T12:20:39.991Z,1027.54
2016-12-03T12:21:05.647Z,1027.6
2016-12-03T12:21:31.218Z,1027.61
2016-12-03T12:21:56.787Z,1027.51
2016-12-03T12:22:22.333Z,1027.58
2016-12-03T12:22:47.918Z,1027.58
2016-12-03T12:23:13.479Z,1027.56
2016-12-03T12:23:39.052Z,1027.56
2016-12-03T12:24:04.620Z,1027.56
2016-12-03T12:24:30.209Z,1027.57
2016-12-03T12:24:55.858Z,1027.55
2016-12-03T12:25:21.479Z,1027.54
2016-12-03T12:25:47.022Z,1027.57
2016-12-03T12:26:12.580Z,1027.57
2016-12-03T12:26:38.182Z,1027.53
2016-12-03T12:27:03.743Z,1027.55
2016-12-03T12:28:17.145Z,1027.52
2016-12-03T12:28:42.697Z,1027.56
2016-12-03T12:29:08.252Z,1027.55
2016-12-03T12:29:33.782Z,1027.53
2016-12-03T12:29:59.339Z,1027.58
2016-12-03T12:30:24.900Z,1027.56
2016-12-03T12:30:50.454Z,1027.55
2016-12-03T12:31:16.131Z,1027.62
2016-12-03T12:31:41.696Z,1027.53
2016-12-03T12:32:07.235Z,1027.52
2016-12-03T12:32:32.829Z,1027.56
2016-12-03T12:32:58.394Z,1027.57
2016-12-03T12:33:23.943Z,1027.54
2016-12-03T12:33:49.517Z,1027.51
2016-12-03T12:34:15.296Z,1027.52
2016-12-03T12:34:40.865Z,1027.51
2016-12-03T12:35:06.415Z,1027.54
2016-12-03T12:35:31.997Z,1027.5
2016-12-03T12:35:57.565Z,1027.49
2016-12-03T12:36:23.125Z,1027.52
2016-12-03T12:36:48.699Z,1027.48
2016-12-03T12:37:14.317Z,1027.49
2016-12-03T12:37:39.866Z,1027.5
2016-12-03T12:38:05.442Z,1027.53
2016-12-03T12:38:31.109Z,1027.49
2016-12-03T12:38:56.710Z,1027.48
2016-12-03T12:39:22.259Z,1027.5
2016-12-03T12:39:47.808Z,1027.5
2016-12-03T12:40:13.368Z,1027.49
2016-12-03T12:40:38.904Z,1027.52
2016-12-03T12:41:04.455Z,1027.52
2016-12-03T12:41:30.120Z,1027.52
2016-12-03T12:41:55.714Z,1027.48
2016-12-03T12:42:21.305Z,1027.46
2016-12-03T12:42:46.887Z,1027.49
2016-12-03T12:43:12.439Z,1027.46
2016-12-03T12:44:31.022Z,1027.54
2016-12-03T12:44:56.691Z,1027.51
2016-12-03T12:45:22.283Z,1027.49
2016-12-03T12:45:47.847Z,1027.47
2016-12-03T12:46:13.464Z,1027.47
2016-12-03T12:46:39.081Z,1027.47
2016-12-03T12:47:04.666Z,1027.48
2016-12-03T12:47:30.645Z,1027.44
2016-12-03T12:47:56.205Z,1027.41
2016-12-03T12:48:21.772Z,1027.45
2016-12-03T12:48:47.355Z,1027.46
2016-12-03T12:49:12.988Z,1027.49
2016-12-03T12:49:38.577Z,1027.48